createdAt,value
2023-01-09T00:00:46.757Z,18.53
2023-01-09T00:03:14.191Z,19.77
2023-01-09T00:05:41.288Z,16.43
2023-01-09T00:08:08.478Z,16.23
2023-01-09T00:10:35.616Z,17.70
2023-01-09T00:13:02.824Z,19.20
2023-01-09T00:15:29.962Z,18.97
2023-01-09T00:17:57.072Z,21.90
2023-01-09T00:20:24.240Z,16.57
2023-01-09T00:22:51.368Z,19.30
2023-01-09T00:25:18.563Z,19.57
2023-01-09T00:27:45.689Z,18.50
2023-01-09T00:30:13.005Z,17.40
2023-01-09T00:32:40.742Z,21.43
2023-01-09T00:35:10.689Z,20.10
2023-01-09T00:37:37.813Z,21.23
2023-01-09T00:40:05.065Z,19.33
2023-01-09T00:42:35.185Z,17.90
2023-01-09T00:45:04.307Z,18.00
2023-01-09T00:47:36.761Z,19.70
2023-01-09T00:50:06.100Z,23.17
2023-01-09T00:52:35.889Z,19.13
2023-01-09T00:55:03.386Z,20.70
2023-01-09T00:57:30.671Z,19.37
2023-01-09T00:59:58.601Z,21.07
2023-01-09T01:02:25.890Z,19.83
2023-01-09T01:05:11.530Z,19.97
2023-01-09T01:07:38.655Z,19.93
2023-01-09T01:10:14.073Z,21.00
2023-01-09T01:12:41.424Z,18.70
2023-01-09T01:15:09.037Z,19.20
2023-01-09T01:17:37.142Z,20.73
2023-01-09T01:20:05.214Z,24.47
2023-01-09T01:22:32.888Z,23.83
2023-01-09T01:25:00.083Z,21.43
2023-01-09T01:27:28.396Z,20.27
2023-01-09T01:29:55.613Z,16.27
2023-01-09T01:32:22.786Z,14.63
2023-01-09T01:34:49.908Z,15.00
2023-01-09T01:37:17.036Z,14.57
2023-01-09T01:39:44.141Z,15.07
2023-01-09T01:42:13.557Z,14.53
2023-01-09T01:44:59.513Z,14.77
2023-01-09T01:47:31.954Z,11.90
2023-01-09T01:49:59.691Z,12.03
2023-01-09T01:52:26.961Z,12.50
2023-01-09T01:54:54.215Z,13.30
2023-01-09T01:57:21.352Z,12.40
2023-01-09T01:59:52.133Z,13.10
2023-01-09T02:02:20.702Z,13.00
2023-01-09T02:04:48.436Z,12.17
2023-01-09T02:07:15.540Z,12.97
2023-01-09T02:09:44.701Z,12.10
2023-01-09T02:12:29.659Z,12.60
2023-01-09T02:15:00.313Z,12.33
2023-01-09T02:17:41.702Z,12.60
2023-01-09T02:20:27.216Z,12.30
2023-01-09T02:22:54.289Z,13.73
2023-01-09T02:25:50.931Z,13.63
2023-01-09T02:28:35.351Z,13.83
2023-01-09T02:31:08.100Z,12.10
2023-01-09T02:33:38.240Z,14.40
2023-01-09T02:36:11.400Z,13.27
2023-01-09T02:38:47.678Z,12.50
2023-01-09T02:41:20.588Z,11.90
2023-01-09T02:43:47.744Z,12.00
2023-01-09T02:46:20.020Z,12.60
2023-01-09T02:48:47.267Z,12.80
2023-01-09T02:51:20.799Z,11.37
2023-01-09T02:53:55.125Z,12.37
2023-01-09T02:56:40.961Z,11.93
2023-01-09T02:59:11.118Z,11.77
2023-01-09T03:01:38.319Z,12.30
2023-01-09T03:04:12.664Z,10.43
2023-01-09T03:06:58.641Z,12.43
2023-01-09T03:09:27.701Z,10.90
2023-01-09T03:11:58.491Z,11.37
2023-01-09T03:14:26.675Z,11.10
2023-01-09T03:16:56.915Z,9.90
2023-01-09T03:19:27.705Z,9.90
2023-01-09T03:21:55.914Z,10.10
2023-01-09T03:24:23.026Z,11.20
2023-01-09T03:26:50.563Z,10.07
2023-01-09T03:29:17.716Z,11.40
2023-01-09T03:31:44.879Z,9.43
2023-01-09T03:34:12.068Z,8.30
2023-01-09T03:36:39.227Z,7.90
2023-01-09T03:39:06.329Z,8.67
2023-01-09T03:41:33.475Z,8.03
2023-01-09T03:44:00.580Z,6.87
2023-01-09T03:46:27.669Z,6.50
2023-01-09T03:48:54.755Z,6.27
2023-01-09T03:51:21.892Z,6.53
2023-01-09T03:53:49.014Z,8.00
2023-01-09T03:56:16.175Z,6.80
2023-01-09T03:58:43.270Z,7.33
2023-01-09T04:01:12.957Z,5.00
2023-01-09T04:03:40.365Z,7.00
2023-01-09T04:06:07.803Z,6.90
2023-01-09T04:08:34.983Z,8.23
2023-01-09T04:11:02.104Z,9.93
2023-01-09T04:13:29.346Z,12.00
2023-01-09T04:15:56.467Z,7.50
2023-01-09T04:18:23.576Z,7.00
2023-01-09T04:20:50.668Z,7.77
2023-01-09T04:23:17.784Z,7.27
2023-01-09T04:25:45.802Z,7.97
2023-01-09T04:28:12.911Z,7.50
2023-01-09T04:30:40.071Z,7.20
2023-01-09T04:33:07.246Z,7.33
2023-01-09T04:35:34.332Z,7.07
2023-01-09T04:38:01.497Z,7.60
2023-01-09T04:40:28.640Z,6.10
2023-01-09T04:42:55.743Z,16.10
2023-01-09T04:45:23.014Z,7.27
2023-01-09T04:47:50.193Z,7.57
2023-01-09T04:50:17.404Z,6.37
2023-01-09T04:52:44.561Z,5.47
2023-01-09T04:55:11.839Z,2.43
2023-01-09T04:57:38.985Z,3.57
2023-01-09T05:00:12.043Z,2.40
2023-01-09T05:02:39.187Z,1.17
2023-01-09T05:05:06.950Z,2.37
2023-01-09T05:07:34.920Z,2.60
2023-01-09T05:10:02.260Z,1.93
2023-01-09T05:12:29.423Z,1.77
2023-01-09T05:14:57.940Z,3.97
2023-01-09T05:17:25.083Z,3.00
2023-01-09T05:19:52.185Z,2.77
2023-01-09T05:22:19.280Z,2.53
2023-01-09T05:24:46.414Z,4.17
2023-01-09T05:27:13.618Z,2.30
2023-01-09T05:29:40.757Z,2.67
2023-01-09T05:32:07.871Z,1.67
2023-01-09T05:34:35.032Z,1.77
2023-01-09T05:37:02.174Z,2.97
2023-01-09T05:39:29.335Z,4.27
2023-01-09T05:41:56.467Z,2.80
2023-01-09T05:44:23.619Z,3.20
2023-01-09T05:46:50.719Z,2.27
2023-01-09T05:49:17.883Z,3.73
2023-01-09T05:51:45.023Z,3.93
2023-01-09T05:54:12.161Z,1.43
2023-01-09T05:56:39.269Z,2.87
2023-01-09T05:59:06.428Z,2.87
2023-01-09T06:01:33.579Z,3.20
2023-01-09T06:04:00.773Z,2.83
2023-01-09T06:06:27.946Z,2.00
2023-01-09T06:08:55.046Z,1.13
2023-01-09T06:11:22.143Z,2.87
2023-01-09T06:13:49.222Z,1.43
2023-01-09T06:16:16.386Z,2.00
2023-01-09T06:18:43.526Z,1.53
2023-01-09T06:21:10.609Z,3.33
2023-01-09T06:23:37.758Z,1.53
2023-01-09T06:26:04.909Z,1.23
2023-01-09T06:28:32.079Z,3.17
2023-01-09T06:30:59.309Z,2.77
2023-01-09T06:33:26.444Z,2.93
2023-01-09T06:35:53.605Z,2.93
2023-01-09T06:38:20.797Z,6.77
2023-01-09T06:40:47.957Z,2.00
2023-01-09T06:43:15.092Z,4.53
2023-01-09T06:45:45.343Z,1.50
2023-01-09T06:48:13.016Z,2.63
2023-01-09T06:50:40.354Z,1.83
2023-01-09T06:53:07.546Z,4.47
2023-01-09T06:55:34.667Z,3.17
2023-01-09T06:58:01.856Z,3.43
2023-01-09T07:00:31.418Z,2.23
2023-01-09T07:02:58.710Z,4.90
2023-01-09T07:05:25.970Z,4.83
2023-01-09T07:07:53.100Z,3.60
2023-01-09T07:10:20.522Z,4.27
2023-01-09T07:12:47.611Z,5.53
2023-01-09T07:15:14.846Z,3.47
2023-01-09T07:17:41.941Z,3.57
2023-01-09T07:20:09.401Z,5.73
2023-01-09T07:22:36.625Z,4.53
2023-01-09T07:25:03.765Z,4.80
2023-01-09T07:27:30.854Z,7.80
2023-01-09T07:29:58.058Z,5.30
2023-01-09T07:32:25.163Z,3.27
2023-01-09T07:34:52.616Z,2.63
2023-01-09T07:37:20.093Z,3.87
2023-01-09T07:39:47.307Z,2.90
2023-01-09T07:42:14.597Z,3.23
2023-01-09T07:44:41.757Z,3.10
2023-01-09T07:47:08.922Z,4.67
2023-01-09T07:49:36.091Z,5.13
2023-01-09T07:52:03.261Z,1.97
2023-01-09T07:54:30.407Z,4.97
2023-01-09T07:56:57.639Z,4.97
2023-01-09T07:59:25.995Z,6.73
2023-01-09T08:01:53.128Z,6.00
2023-01-09T08:04:20.292Z,10.33
2023-01-09T08:06:47.471Z,5.53
2023-01-09T08:09:15.148Z,6.07
2023-01-09T08:11:42.572Z,7.53
2023-01-09T08:14:09.708Z,8.17
2023-01-09T08:16:36.815Z,9.50
2023-01-09T08:19:03.915Z,8.87
2023-01-09T08:21:31.021Z,5.87
2023-01-09T08:23:58.164Z,6.07
2023-01-09T08:26:25.289Z,7.80
2023-01-09T08:28:52.458Z,9.10
2023-01-09T08:31:19.551Z,8.80
2023-01-09T08:33:46.703Z,7.30
2023-01-09T08:36:13.873Z,4.77
2023-01-09T08:38:41.042Z,6.37
2023-01-09T08:41:26.925Z,6.37
2023-01-09T08:44:13.012Z,7.80
2023-01-09T08:46:58.876Z,7.03
2023-01-09T08:49:26.022Z,6.13
2023-01-09T08:51:53.122Z,8.40
2023-01-09T08:54:20.377Z,7.17
2023-01-09T08:56:47.509Z,7.27
2023-01-09T08:59:14.657Z,6.23
2023-01-09T09:01:41.784Z,5.77
2023-01-09T09:04:08.901Z,10.07
2023-01-09T09:06:36.233Z,7.90
2023-01-09T09:09:03.822Z,5.77
2023-01-09T09:11:31.123Z,6.00
2023-01-09T09:13:58.488Z,6.17
2023-01-09T09:16:26.185Z,6.53
2023-01-09T09:18:53.841Z,7.80
2023-01-09T09:21:20.979Z,5.93
2023-01-09T09:23:48.074Z,4.60
2023-01-09T09:26:15.170Z,8.77
2023-01-09T09:28:42.299Z,6.53
2023-01-09T09:31:09.484Z,5.23
2023-01-09T09:33:36.657Z,12.27
2023-01-09T09:36:03.765Z,7.40
2023-01-09T09:38:30.916Z,5.30
2023-01-09T09:41:07.450Z,8.10
2023-01-09T09:44:01.951Z,8.73
2023-01-09T09:46:29.168Z,12.07
2023-01-09T09:49:03.025Z,7.77
2023-01-09T09:51:42.385Z,8.90
2023-01-09T09:54:18.445Z,12.43
2023-01-09T09:56:50.313Z,6.80
2023-01-09T09:59:22.091Z,10.17
2023-01-09T10:01:56.081Z,8.17
2023-01-09T10:04:24.695Z,9.87
2023-01-09T10:06:53.575Z,9.93
2023-01-09T10:09:32.903Z,5.33
2023-01-09T10:12:11.995Z,13.07
2023-01-09T10:14:39.668Z,7.93
2023-01-09T10:17:25.139Z,8.30
2023-01-09T10:19:52.347Z,11.17
2023-01-09T10:22:28.797Z,7.23
2023-01-09T10:25:01.816Z,4.17
2023-01-09T10:27:28.983Z,7.53
2023-01-09T10:30:07.346Z,5.43
2023-01-09T10:32:37.256Z,8.20
2023-01-09T10:35:23.256Z,8.10
2023-01-09T10:37:53.331Z,8.93
2023-01-09T10:40:20.519Z,9.53
2023-01-09T10:42:49.489Z,6.83
2023-01-09T10:45:21.928Z,5.47
2023-01-09T10:47:49.213Z,7.67
2023-01-09T10:50:19.485Z,8.53
2023-01-09T10:52:47.119Z,9.10
2023-01-09T10:55:14.299Z,5.77
2023-01-09T10:57:43.122Z,7.13
2023-01-09T11:00:36.760Z,5.97
2023-01-09T11:03:04.287Z,9.27
2023-01-09T11:05:32.812Z,5.83
2023-01-09T11:08:09.237Z,5.90
2023-01-09T11:10:52.945Z,3.73
2023-01-09T11:13:21.946Z,3.37
2023-01-09T11:16:07.473Z,5.67
2023-01-09T11:18:35.982Z,5.13
2023-01-09T11:21:26.608Z,4.70
2023-01-09T11:23:53.785Z,7.20
2023-01-09T11:26:28.197Z,7.67
2023-01-09T11:29:11.194Z,4.23
2023-01-09T11:31:38.824Z,2.97
2023-01-09T11:34:07.277Z,3.67
2023-01-09T11:36:34.513Z,3.90
2023-01-09T11:39:02.728Z,3.37
2023-01-09T11:41:34.468Z,5.30
2023-01-09T11:44:01.939Z,3.43
2023-01-09T11:46:40.940Z,7.83
2023-01-09T11:49:13.852Z,4.67
2023-01-09T11:51:41.799Z,2.07
2023-01-09T11:54:17.708Z,4.97
2023-01-09T11:56:45.473Z,2.83
2023-01-09T11:59:14.128Z,4.37
2023-01-09T12:01:41.240Z,3.13
2023-01-09T12:04:08.385Z,9.13
2023-01-09T12:06:35.523Z,7.67
2023-01-09T12:09:03.585Z,3.83
2023-01-09T12:11:32.898Z,4.23
2023-01-09T12:14:06.104Z,2.57
2023-01-09T12:16:52.012Z,8.20
2023-01-09T12:19:25.237Z,4.23
2023-01-09T12:22:01.321Z,3.30
2023-01-09T12:24:39.637Z,3.87
2023-01-09T12:27:06.922Z,3.67
2023-01-09T12:29:46.462Z,2.60
2023-01-09T12:32:19.651Z,2.60
2023-01-09T12:34:49.518Z,3.07
2023-01-09T12:37:18.059Z,3.83
2023-01-09T12:40:03.786Z,4.53
2023-01-09T12:42:38.222Z,3.60
2023-01-09T12:45:27.979Z,3.23
2023-01-09T12:48:00.348Z,3.13
2023-01-09T12:50:30.206Z,2.60
2023-01-09T12:53:03.475Z,2.73
2023-01-09T12:55:34.620Z,3.77
2023-01-09T12:58:04.333Z,3.57
2023-01-09T13:00:35.597Z,2.63
2023-01-09T13:03:21.593Z,3.67
2023-01-09T13:05:53.437Z,2.70
2023-01-09T13:08:26.483Z,2.97
2023-01-09T13:10:57.584Z,2.47
2023-01-09T13:13:30.870Z,1.77
2023-01-09T13:15:59.337Z,6.33
2023-01-09T13:18:32.737Z,3.03
2023-01-09T13:21:01.190Z,2.47
2023-01-09T13:23:31.396Z,3.57
2023-01-09T13:26:00.379Z,3.63
2023-01-09T13:28:31.604Z,4.20
2023-01-09T13:31:14.132Z,1.80
2023-01-09T13:33:43.953Z,2.03
2023-01-09T13:36:21.047Z,4.73
2023-01-09T13:38:49.905Z,2.70
2023-01-09T13:41:36.660Z,4.10
2023-01-09T13:44:07.831Z,1.80
2023-01-09T13:46:34.951Z,4.23
2023-01-09T13:49:03.737Z,3.03
2023-01-09T13:51:57.362Z,2.43
2023-01-09T13:54:43.093Z,3.07
2023-01-09T13:57:19.170Z,4.23
2023-01-09T13:59:47.837Z,3.53
2023-01-09T14:02:34.082Z,2.60
2023-01-09T14:05:01.832Z,3.83
2023-01-09T14:07:29.630Z,1.20
2023-01-09T14:10:01.417Z,3.60
2023-01-09T14:12:30.108Z,2.20
2023-01-09T14:14:59.440Z,3.33
2023-01-09T14:17:30.720Z,2.23
2023-01-09T14:19:58.825Z,1.43
2023-01-09T14:22:27.566Z,2.00
2023-01-09T14:24:56.672Z,3.87
2023-01-09T14:27:42.772Z,2.07
2023-01-09T14:30:28.477Z,1.80
2023-01-09T14:33:14.179Z,3.00
2023-01-09T14:35:43.667Z,3.47
2023-01-09T14:38:29.642Z,2.70
2023-01-09T14:41:00.790Z,1.80
2023-01-09T14:43:33.076Z,2.93
2023-01-09T14:46:05.380Z,4.87
2023-01-09T14:48:34.562Z,3.80
2023-01-09T14:51:02.698Z,2.83
2023-01-09T14:53:34.783Z,2.80
2023-01-09T14:56:06.025Z,0.57
2023-01-09T14:58:37.037Z,3.37
2023-01-09T15:01:04.172Z,4.80
2023-01-09T15:03:43.370Z,1.30
2023-01-09T15:06:14.028Z,2.47
2023-01-09T15:08:44.842Z,3.07
2023-01-09T15:11:12.676Z,2.97
2023-01-09T15:13:44.739Z,3.93
2023-01-09T15:16:22.681Z,4.07
2023-01-09T15:18:52.073Z,4.23
2023-01-09T15:21:20.827Z,4.10
2023-01-09T15:23:48.137Z,3.07
2023-01-09T15:26:24.399Z,3.17
2023-01-09T15:28:52.772Z,2.20
2023-01-09T15:31:21.571Z,1.70
2023-01-09T15:33:49.270Z,3.87
2023-01-09T15:36:19.096Z,3.03
2023-01-09T15:38:46.448Z,3.97
2023-01-09T15:41:36.425Z,4.37
2023-01-09T15:44:04.534Z,5.33
2023-01-09T15:46:31.737Z,4.50
2023-01-09T15:48:59.031Z,6.60
2023-01-09T15:51:26.185Z,3.77
2023-01-09T15:53:54.680Z,4.77
2023-01-09T15:56:33.315Z,7.77
2023-01-09T15:59:01.439Z,5.50
2023-01-09T16:01:32.864Z,3.83
2023-01-09T16:04:07.809Z,3.80
2023-01-09T16:06:37.138Z,4.73
2023-01-09T16:09:05.485Z,5.17
2023-01-09T16:11:36.864Z,4.50
2023-01-09T16:14:19.077Z,4.60
2023-01-09T16:16:47.206Z,5.00
2023-01-09T16:19:30.895Z,5.67
2023-01-09T16:21:59.020Z,4.80
2023-01-09T16:24:27.904Z,5.00
2023-01-09T16:27:13.630Z,9.97
2023-01-09T16:29:46.054Z,4.60
2023-01-09T16:32:18.624Z,5.70
2023-01-09T16:34:47.256Z,4.97
2023-01-09T16:37:14.731Z,6.37
2023-01-09T16:39:41.914Z,5.30
2023-01-09T16:42:28.420Z,6.70
2023-01-09T16:44:55.515Z,5.17
2023-01-09T16:47:22.663Z,5.73
2023-01-09T16:49:49.838Z,3.43
2023-01-09T16:52:17.615Z,2.83
2023-01-09T16:54:46.888Z,6.03
2023-01-09T16:57:17.088Z,4.13
2023-01-09T16:59:44.436Z,4.27
2023-01-09T17:02:19.130Z,5.00
2023-01-09T17:04:46.703Z,2.63
2023-01-09T17:07:14.492Z,3.07
2023-01-09T17:09:41.562Z,8.23
2023-01-09T17:12:27.989Z,5.13
2023-01-09T17:14:55.119Z,9.60
2023-01-09T17:17:22.340Z,5.03
2023-01-09T17:19:49.524Z,8.00
2023-01-09T17:22:17.836Z,5.67
2023-01-09T17:25:03.593Z,6.73
2023-01-09T17:27:53.700Z,8.03
2023-01-09T17:30:21.456Z,4.53
2023-01-09T17:32:49.138Z,6.57
2023-01-09T17:35:16.776Z,7.33
2023-01-09T17:37:44.114Z,6.27
2023-01-09T17:40:18.278Z,7.80
2023-01-09T17:42:45.414Z,5.60
2023-01-09T17:45:12.908Z,10.83
2023-01-09T17:47:40.056Z,6.13
2023-01-09T17:50:07.413Z,5.00
2023-01-09T17:52:34.557Z,7.63
2023-01-09T17:55:05.187Z,5.80
2023-01-09T17:57:33.120Z,8.07
2023-01-09T18:00:00.366Z,6.10
2023-01-09T18:02:27.564Z,6.37
2023-01-09T18:04:54.709Z,6.40
2023-01-09T18:07:21.888Z,6.17
2023-01-09T18:09:49.055Z,5.67
2023-01-09T18:12:16.227Z,6.40
2023-01-09T18:14:43.305Z,4.47
2023-01-09T18:17:13.145Z,3.43
2023-01-09T18:19:40.418Z,5.37
2023-01-09T18:22:07.504Z,9.63
2023-01-09T18:24:34.664Z,5.63
2023-01-09T18:27:01.828Z,6.47
2023-01-09T18:29:28.989Z,3.67
2023-01-09T18:31:56.142Z,4.73
2023-01-09T18:34:23.301Z,7.50
2023-01-09T18:36:50.393Z,6.80
2023-01-09T18:39:17.642Z,7.60
2023-01-09T18:41:44.771Z,4.37
2023-01-09T18:44:11.917Z,7.83
2023-01-09T18:46:40.728Z,6.63
2023-01-09T18:49:07.891Z,7.40
2023-01-09T18:51:38.275Z,5.07
2023-01-09T18:54:08.229Z,8.27
2023-01-09T18:56:35.703Z,5.80
2023-01-09T18:59:02.866Z,6.63
2023-01-09T19:01:30.642Z,6.77
2023-01-09T19:03:59.387Z,7.07
2023-01-09T19:06:27.209Z,7.60
2023-01-09T19:08:55.031Z,8.23
2023-01-09T19:11:22.144Z,5.50
2023-01-09T19:13:50.603Z,9.37
2023-01-09T19:16:18.108Z,6.43
2023-01-09T19:18:45.891Z,14.33
2023-01-09T19:21:17.486Z,5.50
2023-01-09T19:23:45.089Z,8.17
2023-01-09T19:26:32.574Z,6.33
2023-01-09T19:29:00.757Z,5.10
2023-01-09T19:31:29.029Z,5.37
2023-01-09T19:33:57.068Z,8.13
2023-01-09T19:36:24.218Z,4.70
2023-01-09T19:38:56.120Z,6.00
2023-01-09T19:41:23.276Z,6.63
2023-01-09T19:43:51.375Z,5.93
2023-01-09T19:46:19.987Z,4.83
2023-01-09T19:48:47.782Z,7.07
2023-01-09T19:51:15.833Z,5.20
2023-01-09T19:53:43.038Z,5.17
2023-01-09T19:56:14.303Z,5.83
2023-01-09T19:58:41.871Z,6.27
2023-01-09T20:01:16.351Z,5.37
2023-01-09T20:03:44.224Z,4.37
2023-01-09T20:06:14.227Z,5.93
2023-01-09T20:08:42.581Z,7.67
2023-01-09T20:11:09.829Z,6.23
2023-01-09T20:13:37.300Z,4.27
2023-01-09T20:16:05.084Z,5.83
2023-01-09T20:18:32.900Z,6.73
2023-01-09T20:21:00.059Z,4.97
2023-01-09T20:23:27.715Z,5.67
2023-01-09T20:25:55.211Z,4.60
2023-01-09T20:28:22.759Z,6.03
2023-01-09T20:30:51.665Z,5.30
2023-01-09T20:33:19.668Z,3.83
2023-01-09T20:35:47.010Z,6.53
2023-01-09T20:38:14.550Z,4.60
2023-01-09T20:40:44.524Z,6.97
2023-01-09T20:43:12.847Z,7.50
2023-01-09T20:45:40.861Z,5.70
2023-01-09T20:48:09.148Z,4.83
2023-01-09T20:50:36.320Z,5.13
2023-01-09T20:53:05.055Z,3.57
2023-01-09T20:55:33.622Z,7.27
2023-01-09T20:58:00.710Z,9.40
2023-01-09T21:00:31.880Z,7.17
2023-01-09T21:02:59.658Z,5.60
2023-01-09T21:05:26.943Z,5.93
2023-01-09T21:07:54.096Z,6.17
2023-01-09T21:10:21.205Z,5.27
2023-01-09T21:12:48.354Z,4.57
2023-01-09T21:15:17.754Z,5.60
2023-01-09T21:17:45.039Z,6.37
2023-01-09T21:20:13.783Z,5.30
2023-01-09T21:22:40.945Z,6.97
2023-01-09T21:25:08.376Z,5.17
2023-01-09T21:27:39.843Z,5.83
2023-01-09T21:30:08.233Z,10.17
2023-01-09T21:32:35.570Z,7.87
2023-01-09T21:35:06.798Z,4.33
2023-01-09T21:37:35.446Z,8.27
2023-01-09T21:40:02.692Z,7.67
2023-01-09T21:42:48.611Z,4.30
2023-01-09T21:45:35.262Z,6.40
2023-01-09T21:48:06.128Z,5.70
2023-01-09T21:50:36.585Z,8.83
2023-01-09T21:53:04.315Z,7.67
2023-01-09T21:55:34.401Z,6.50
2023-01-09T21:58:01.659Z,5.63
2023-01-09T22:00:29.254Z,7.27
2023-01-09T22:02:56.353Z,8.17
2023-01-09T22:05:27.290Z,6.57
2023-01-09T22:07:55.848Z,7.10
2023-01-09T22:10:23.050Z,7.23
2023-01-09T22:13:10.161Z,7.67
2023-01-09T22:15:37.364Z,6.93
2023-01-09T22:18:04.569Z,8.60
2023-01-09T22:20:31.692Z,8.53
2023-01-09T22:22:58.972Z,8.90
2023-01-09T22:25:26.151Z,8.37
2023-01-09T22:27:53.252Z,8.43
2023-01-09T22:30:20.441Z,8.93
2023-01-09T22:32:47.575Z,6.50
2023-01-09T22:35:14.711Z,8.40
2023-01-09T22:37:41.951Z,7.93
2023-01-09T22:40:09.537Z,7.57
2023-01-09T22:42:36.701Z,7.10
2023-01-09T22:45:03.891Z,7.50
2023-01-09T22:47:31.002Z,5.40
2023-01-09T22:49:58.089Z,6.60
2023-01-09T22:52:25.278Z,6.57
2023-01-09T22:54:52.365Z,6.47
2023-01-09T22:57:19.488Z,6.47
2023-01-09T22:59:46.591Z,9.57
2023-01-09T23:02:13.870Z,6.80
2023-01-09T23:04:41.057Z,7.27
2023-01-09T23:07:08.218Z,4.53
2023-01-09T23:09:35.337Z,8.30
2023-01-09T23:12:02.467Z,6.13
2023-01-09T23:14:33.698Z,6.57
2023-01-09T23:17:00.825Z,9.07
2023-01-09T23:19:27.950Z,7.83
2023-01-09T23:21:55.199Z,6.00
2023-01-09T23:24:22.343Z,6.40
2023-01-09T23:26:49.910Z,6.27
2023-01-09T23:29:17.073Z,6.83
2023-01-09T23:31:44.278Z,7.30
2023-01-09T23:34:14.287Z,6.17
2023-01-09T23:36:41.734Z,6.27
2023-01-09T23:39:10.099Z,10.10
2023-01-09T23:41:56.671Z,6.67
2023-01-09T23:44:23.914Z,5.77
2023-01-09T23:46:51.275Z,8.00
2023-01-09T23:49:18.460Z,9.37
2023-01-09T23:51:46.376Z,8.53
2023-01-09T23:54:14.108Z,7.80
2023-01-09T23:56:41.287Z,5.37
2023-01-09T23:59:11.867Z,5.43
